Otsego, Minnesota
Current Conditions -  °F | °C
As of 6:05 PM on Saturday 22 Nov 2014 (Local Time) from KMIC Reporting Station
Haze Haze  
Wind Chill: 28°   Ceiling: 500
Heat Index: 36°   Visibility: 3mi
Dew Point: 33°   Wind: 12mph
Humidity: 89%   Direction: 150°SSE
Pressure: 29.59"   Gusts: NA
Location:  45.1964°N, 93.4758°W
Report Text: KMIC 230005Z 15010KT 3SM BR OVC005 02/01 A2959 RMK AO2 T00220006
Loading
Personal Weather Stations






























Interactive Weather Map New forecast layout! Learn more

10-Day Weather Forecast

Advertisements
Track Severe Weather on mobile